Riverchase, Alabama
Current Conditions -  °F | °C
As of 4:53 PM on Wednesday 26 Nov 2014 (Local Time) from KEET Reporting Station
Clear Clear  
Wind Chill: 55°   Ceiling: Unl
Heat Index: 55°   Visibility: 10mi
Dew Point: 29°   Wind: 5mph
Humidity: 37%   Direction: 180°S
Pressure: 30.07"   Gusts: NA
Location:  33.3655°N, 86.7846°W
Report Text: KEET 262253Z AUTO 18004KT 10SM CLR 13/M02 A3007 RMK AO2 SLP181 T01281017
Loading
Personal Weather Stations






























Interactive Weather Map New forecast layout! Learn more

10-Day Weather Forecast

Advertisements
Track Severe Weather on mobile